Time;durP1;ratioP1;P1;durP2;ratioP2;P2;SDS_P1;SDS_P2;PMS_P1;PMS_P2;Temp;Humidity;BMP_temperature;BMP_pressure;BME280_temperature;BME280_humidity;BME280_pressure;Samples;Min_cycle;Max_cycle;Signal;HPM_P1;HPM_P2
2022/06/15 00:01:27;;;;;;;0.00;0.00;;;12.50;99.90;;;;;;5076865;28;20059;-79
2022/06/15 00:03:53;;;;;;;0.38;0.10;;;12.50;99.90;;;;;;5111017;28;20044;-79
2022/06/15 00:06:28;;;;;;;0.00;0.00;;;12.50;99.90;;;;;;5093868;28;20055;-79
2022/06/15 00:08:57;;;;;;;0.00;0.00;;;12.50;99.90;;;;;;5093743;28;20044;-79
2022/06/15 00:11:38;;;;;;;0.00;0.00;;;12.40;99.90;;;;;;5093590;28;20044;-79
2022/06/15 00:14:11;;;;;;;0.00;0.00;;;12.40;99.90;;;;;;5076965;28;20044;-79
2022/06/15 00:16:36;;;;;;;0.00;0.00;;;12.40;99.90;;;;;;5093757;28;20055;-79
2022/06/15 00:19:04;;;;;;;0.00;0.00;;;12.30;99.90;;;;;;5094417;28;20052;-79
2022/06/15 00:21:31;;;;;;;0.00;0.00;;;12.30;99.90;;;;;;5094027;28;20109;-79
2022/06/15 00:23:59;;;;;;;0.00;0.00;;;12.40;99.90;;;;;;5093803;28;20044;-79
2022/06/15 00:26:26;;;;;;;0.00;0.00;;;12.30;99.90;;;;;;5093693;28;20063;-78
2022/06/15 00:28:52;;;;;;;0.00;0.00;;;12.20;99.90;;;;;;5075911;28;20099;-79
2022/06/15 00:31:19;;;;;;;0.00;0.00;;;12.20;99.90;;;;;;5076533;28;20044;-79
2022/06/15 00:33:44;;;;;;;0.00;0.00;;;12.20;99.90;;;;;;5094198;28;20059;-79
2022/06/15 00:36:13;;;;;;;0.00;0.00;;;12.30;99.90;;;;;;5093588;28;20048;-79
2022/06/15 00:38:46;;;;;;;0.00;0.00;;;12.20;99.90;;;;;;5076519;28;20044;-79
2022/06/15 00:41:15;;;;;;;0.00;0.00;;;12.20;99.90;;;;;;5093443;28;20056;-79
2022/06/15 00:43:45;;;;;;;0.00;0.00;;;12.20;99.90;;;;;;5076450;28;20558;-78
2022/06/15 00:46:33;;;;;;;0.00;0.00;;;12.10;99.90;;;;;;5076100;28;20047;-80
2022/06/15 00:49:08;;;;;;;0.00;0.00;;;12.10;99.90;;;;;;5092921;28;20056;-78
2022/06/15 00:51:34;;;;;;;0.00;0.00;;;12.00;99.90;;;;;;5076117;28;20055;-79
2022/06/15 00:54:00;;;;;;;0.00;0.00;;;12.00;99.90;;;;;;5076217;28;20048;-79
2022/06/15 00:56:27;;;;;;;0.00;0.00;;;12.00;99.90;;;;;;5075954;28;20052;-79
2022/06/15 00:58:59;;;;;;;0.00;0.00;;;11.90;99.90;;;;;;5076489;28;20059;-79
2022/06/15 01:01:25;;;;;;;0.00;0.00;;;11.90;99.90;;;;;;5093564;28;20048;-79
2022/06/15 01:03:52;;;;;;;0.00;0.00;;;11.80;99.90;;;;;;5093042;28;20040;-79
2022/06/15 01:06:36;;;;;;;0.00;0.00;;;11.80;99.90;;;;;;5093098;28;20043;-79
2022/06/15 01:09:17;;;;;;;0.00;0.00;;;11.80;99.90;;;;;;5092434;28;20040;-79
2022/06/15 01:12:08;;;;;;;0.00;0.00;;;11.80;99.90;;;;;;5093203;28;20364;-79
2022/06/15 01:14:33;;;;;;;0.00;0.00;;;11.80;99.90;;;;;;5093077;28;20040;-79
2022/06/15 01:17:20;;;;;;;0.00;0.00;;;11.80;99.90;;;;;;5092819;28;20399;-79
2022/06/15 01:20:14;;;;;;;0.00;0.00;;;11.80;99.90;;;;;;5076755;28;20475;-79
2022/06/15 01:22:42;;;;;;;1.13;0.28;;;11.70;99.90;;;;;;5093059;28;20136;-80
2022/06/15 01:25:29;;;;;;;0.00;0.00;;;11.70;99.90;;;;;;5092761;28;20094;-79
2022/06/15 01:28:15;;;;;;;0.00;0.00;;;11.70;99.90;;;;;;5075461;28;20064;-79
2022/06/15 01:30:51;;;;;;;0.00;0.00;;;11.70;99.90;;;;;;5076125;28;20044;-79
2022/06/15 01:33:19;;;;;;;0.00;0.00;;;11.70;99.90;;;;;;5075532;28;20075;-79
2022/06/15 01:36:06;;;;;;;0.00;0.00;;;11.70;99.90;;;;;;5076301;28;20539;-79
2022/06/15 01:38:41;;;;;;;0.00;0.00;;;11.60;99.90;;;;;;5093326;28;20437;-79
2022/06/15 01:41:27;;;;;;;0.00;0.00;;;11.60;99.90;;;;;;5093083;28;20048;-80
2022/06/15 01:43:57;;;;;;;0.00;0.00;;;11.50;99.90;;;;;;5092808;28;20040;-79
2022/06/15 01:46:24;;;;;;;0.00;0.00;;;11.40;99.90;;;;;;5093333;28;20080;-80
2022/06/15 01:48:54;;;;;;;0.10;0.10;;;11.50;99.90;;;;;;5075964;28;20060;-80
2022/06/15 01:51:33;;;;;;;0.00;0.00;;;11.40;99.90;;;;;;5075232;28;20556;-79
2022/06/15 01:54:07;;;;;;;0.00;0.00;;;11.40;99.90;;;;;;5075921;28;20048;-79
2022/06/15 01:56:42;;;;;;;2.40;0.57;;;11.30;99.90;;;;;;5075681;28;20052;-79
2022/06/15 01:59:15;;;;;;;0.00;0.00;;;11.30;99.90;;;;;;5093166;28;20115;-79
2022/06/15 02:01:55;;;;;;;0.17;0.10;;;11.20;99.90;;;;;;5075625;28;20044;-79
2022/06/15 02:04:41;;;;;;;0.00;0.00;;;11.20;99.90;;;;;;5075634;28;20063;-79
2022/06/15 02:07:25;;;;;;;0.00;0.00;;;11.20;99.90;;;;;;5075607;28;20044;-79
2022/06/15 02:10:18;;;;;;;0.00;0.00;;;11.10;99.90;;;;;;5092258;28;20036;-79
2022/06/15 02:13:02;;;;;;;0.00;0.00;;;11.10;99.90;;;;;;5092619;28;20048;-80
2022/06/15 02:15:29;;;;;;;0.00;0.00;;;11.10;99.90;;;;;;5075957;28;20433;-79
2022/06/15 02:18:00;;;;;;;0.00;0.00;;;11.10;99.90;;;;;;5092517;28;20101;-79
2022/06/15 02:20:31;;;;;;;0.00;0.00;;;11.10;99.90;;;;;;5078611;28;20134;-79
2022/06/15 02:23:06;;;;;;;0.00;0.00;;;11.00;99.90;;;;;;5079050;28;20083;-79
2022/06/15 02:25:36;;;;;;;0.10;0.10;;;11.00;99.90;;;;;;5079073;28;20051;-79
2022/06/15 02:28:03;;;;;;;0.35;0.15;;;11.00;99.90;;;;;;5096480;28;20089;-79
2022/06/15 02:30:30;;;;;;;0.00;0.00;;;11.00;99.90;;;;;;5079008;28;20135;-79
2022/06/15 02:33:02;;;;;;;0.00;0.00;;;10.90;99.90;;;;;;5078572;28;20060;-79
2022/06/15 02:35:28;;;;;;;0.00;0.00;;;10.90;99.90;;;;;;5096010;28;20040;-79
2022/06/15 02:37:54;;;;;;;0.00;0.00;;;10.90;99.90;;;;;;5079072;28;20109;-79
2022/06/15 02:40:22;;;;;;;0.00;0.00;;;10.90;99.90;;;;;;5095694;28;20513;-79
2022/06/15 02:42:49;;;;;;;0.00;0.00;;;10.90;99.90;;;;;;5078996;28;20051;-79
2022/06/15 02:45:29;;;;;;;0.00;0.00;;;10.90;99.90;;;;;;5078731;28;20044;-79
2022/06/15 02:47:56;;;;;;;0.00;0.00;;;10.80;99.90;;;;;;5095229;28;20060;-79
2022/06/15 02:50:26;;;;;;;0.00;0.00;;;10.80;99.90;;;;;;5078450;28;20043;-80
2022/06/15 02:53:05;;;;;;;0.00;0.00;;;10.70;99.90;;;;;;5078216;28;20091;-79
2022/06/15 02:55:32;;;;;;;0.00;0.00;;;10.70;99.90;;;;;;5095481;28;20476;-79
2022/06/15 02:58:29;;;;;;;0.10;0.10;;;10.60;99.90;;;;;;5078488;28;20059;-79
2022/06/15 03:00:55;;;;;;;9.95;0.93;;;10.60;99.90;;;;;;5095389;28;20048;-79
2022/06/15 03:03:23;;;;;;;0.10;0.00;;;10.60;99.90;;;;;;5078076;28;20052;-79
2022/06/15 03:05:50;;;;;;;0.00;0.00;;;10.70;99.90;;;;;;5079151;28;20052;-79
2022/06/15 03:08:17;;;;;;;0.10;0.10;;;10.60;99.90;;;;;;5078499;28;20040;-79
2022/06/15 03:10:43;;;;;;;0.00;0.00;;;10.70;99.90;;;;;;5077844;28;20499;-79
2022/06/15 03:13:09;;;;;;;0.00;0.00;;;10.60;99.90;;;;;;5095014;28;20040;-79
2022/06/15 03:15:35;;;;;;;0.00;0.00;;;10.60;99.90;;;;;;5095134;28;20039;-79
2022/06/15 03:18:01;;;;;;;0.00;0.00;;;10.70;99.90;;;;;;5078068;28;20083;-79
2022/06/15 03:20:27;;;;;;;0.00;0.00;;;10.60;99.90;;;;;;5095139;28;20506;-79
2022/06/15 03:22:53;;;;;;;0.00;0.00;;;10.60;99.90;;;;;;5094910;28;20039;-79
2022/06/15 03:25:18;;;;;;;0.00;0.00;;;10.50;99.90;;;;;;5077845;28;20091;-79
2022/06/15 03:27:44;;;;;;;0.05;0.00;;;10.50;99.90;;;;;;5094852;28;20083;-79
2022/06/15 03:30:11;;;;;;;0.00;0.00;;;10.50;99.90;;;;;;5077271;28;20055;-79
2022/06/15 03:32:37;;;;;;;0.00;0.00;;;10.50;99.90;;;;;;5093918;28;20093;-79
2022/06/15 03:35:04;;;;;;;0.00;0.00;;;10.50;99.90;;;;;;5094822;28;20127;-79
2022/06/15 03:37:30;;;;;;;0.00;0.00;;;10.50;99.90;;;;;;5078701;28;20612;-79
2022/06/15 03:39:55;;;;;;;0.00;0.00;;;10.50;99.90;;;;;;5094167;28;20089;-79
2022/06/15 03:42:24;;;;;;;0.00;0.00;;;10.50;99.90;;;;;;5094521;28;20102;-79
2022/06/15 03:44:51;;;;;;;0.00;0.00;;;10.50;99.90;;;;;;5094280;28;20148;-79
2022/06/15 03:47:17;;;;;;;0.00;0.00;;;10.50;99.90;;;;;;5077688;28;20055;-80
2022/06/15 03:49:51;;;;;;;0.00;0.00;;;10.60;99.90;;;;;;5076899;28;20055;-79
2022/06/15 03:52:18;;;;;;;0.57;0.32;;;10.60;99.90;;;;;;5077495;28;20067;-80
2022/06/15 03:54:44;;;;;;;0.10;0.10;;;10.60;99.90;;;;;;5076913;28;20063;-79
2022/06/15 03:57:13;;;;;;;0.70;0.32;;;10.70;99.90;;;;;;5077212;28;20062;-79
2022/06/15 03:59:39;;;;;;;0.00;0.00;;;10.70;99.90;;;;;;5077257;28;20048;-79
2022/06/15 04:02:05;;;;;;;0.00;0.00;;;10.80;99.90;;;;;;5077309;28;20056;-79
2022/06/15 04:04:31;;;;;;;0.00;0.00;;;10.70;99.90;;;;;;5094198;28;20051;-79
2022/06/15 04:06:57;;;;;;;0.00;0.00;;;10.70;99.90;;;;;;5094320;28;20130;-79
2022/06/15 04:09:23;;;;;;;0.10;0.00;;;10.70;99.90;;;;;;5093768;28;20127;-79
2022/06/15 04:11:59;;;;;;;0.15;0.00;;;10.80;99.90;;;;;;5093661;28;20492;-79
2022/06/15 04:14:26;;;;;;;0.00;0.00;;;10.80;99.90;;;;;;5094259;28;20436;-79
2022/06/15 04:16:56;;;;;;;0.00;0.00;;;10.80;99.90;;;;;;5076820;28;20058;-79
2022/06/15 04:19:31;;;;;;;0.00;0.00;;;10.90;99.90;;;;;;5094064;28;20054;-79
2022/06/15 04:21:58;;;;;;;0.00;0.00;;;10.90;99.90;;;;;;5094047;28;20044;-79
2022/06/15 04:24:28;;;;;;;0.00;0.00;;;11.00;99.90;;;;;;5093675;28;20044;-79
2022/06/15 04:26:55;;;;;;;0.00;0.00;;;11.00;99.90;;;;;;5076936;28;20068;-79
2022/06/15 04:29:21;;;;;;;0.00;0.00;;;11.10;99.90;;;;;;5094017;28;20040;-79
2022/06/15 04:31:47;;;;;;;0.00;0.00;;;11.10;99.90;;;;;;5093540;28;20079;-79
2022/06/15 04:34:13;;;;;;;0.00;0.00;;;11.20;99.90;;;;;;5093488;28;20468;-79
2022/06/15 04:36:41;;;;;;;0.00;0.00;;;11.20;99.90;;;;;;5093585;28;20048;-79
2022/06/15 04:39:10;;;;;;;2.10;0.30;;;11.20;99.90;;;;;;5093927;28;20055;-80
2022/06/15 04:41:40;;;;;;;0.00;0.00;;;11.30;99.90;;;;;;5092719;28;20067;-79
2022/06/15 04:44:07;;;;;;;0.00;0.00;;;11.30;99.90;;;;;;5092334;28;20127;-79
2022/06/15 04:46:33;;;;;;;0.00;0.00;;;11.40;99.90;;;;;;5093417;28;20047;-79
2022/06/15 04:49:00;;;;;;;0.00;0.00;;;11.40;99.90;;;;;;5093035;28;20128;-79
2022/06/15 04:51:29;;;;;;;0.00;0.00;;;11.50;99.90;;;;;;5093087;28;20051;-79
2022/06/15 04:53:57;;;;;;;0.00;0.00;;;11.50;99.90;;;;;;5076249;28;20060;-79
2022/06/15 04:56:23;;;;;;;0.00;0.00;;;11.50;99.90;;;;;;5076497;28;20054;-79
2022/06/15 04:58:49;;;;;;;0.00;0.00;;;11.50;99.90;;;;;;5093271;28;20048;-79
2022/06/15 05:01:15;;;;;;;0.52;0.00;;;11.60;99.90;;;;;;5093177;28;20097;-79
2022/06/15 05:03:41;;;;;;;0.00;0.00;;;11.70;99.90;;;;;;5092683;28;20047;-80
2022/06/15 05:06:31;;;;;;;0.10;0.00;;;11.70;99.90;;;;;;5092955;28;20043;-79
2022/06/15 05:08:56;;;;;;;0.00;0.00;;;11.80;99.90;;;;;;5093423;28;20047;-79
2022/06/15 05:11:23;;;;;;;0.00;0.00;;;11.90;99.90;;;;;;5076098;28;20044;-79
2022/06/15 05:13:48;;;;;;;0.00;0.00;;;12.00;99.90;;;;;;5092551;28;20091;-79
2022/06/15 05:16:14;;;;;;;0.00;0.00;;;12.00;99.90;;;;;;5075978;28;20515;-79
2022/06/15 05:18:40;;;;;;;0.00;0.00;;;12.10;99.90;;;;;;5092785;28;20055;-79
2022/06/15 05:21:06;;;;;;;0.00;0.00;;;12.20;99.90;;;;;;5076070;28;20055;-79
2022/06/15 05:23:32;;;;;;;0.00;0.00;;;12.30;99.90;;;;;;5075723;28;20052;-79
2022/06/15 05:26:01;;;;;;;0.00;0.00;;;12.30;99.90;;;;;;5092784;28;20051;-79
2022/06/15 05:28:27;;;;;;;0.00;0.00;;;12.40;99.90;;;;;;5092876;28;20048;-79
2022/06/15 05:31:06;;;;;;;0.00;0.00;;;12.50;99.90;;;;;;5075621;28;20488;-79
2022/06/15 05:33:34;;;;;;;0.10;0.10;;;12.60;99.90;;;;;;5075864;28;20044;-79
2022/06/15 05:36:02;;;;;;;0.00;0.00;;;12.60;99.90;;;;;;5092905;28;20062;-79
2022/06/15 05:38:28;;;;;;;0.10;0.10;;;12.70;99.90;;;;;;5092611;28;20055;-79
2022/06/15 05:40:56;;;;;;;0.00;0.00;;;12.80;99.90;;;;;;5092439;28;20399;-79
2022/06/15 05:43:22;;;;;;;0.00;0.00;;;13.10;99.90;;;;;;5075581;28;20565;-79
2022/06/15 05:45:48;;;;;;;0.00;0.00;;;13.40;99.90;;;;;;5092470;28;20087;-79
2022/06/15 05:48:13;;;;;;;0.00;0.00;;;14.20;99.90;;;;;;5093023;28;20484;-79
2022/06/15 05:50:39;;;;;;;0.00;0.00;;;14.70;99.90;;;;;;5092041;28;20051;-79
2022/06/15 05:53:05;;;;;;;0.00;0.00;;;15.00;99.90;;;;;;5092582;28;20131;-80
2022/06/15 05:55:30;;;;;;;0.00;0.00;;;14.90;99.90;;;;;;5095924;28;20475;-79
2022/06/15 05:57:56;;;;;;;0.00;0.00;;;14.90;99.90;;;;;;5096607;28;20047;-80
2022/06/15 06:00:25;;;;;;;1.95;0.65;;;14.70;99.90;;;;;;5096320;28;20048;-79
2022/06/15 06:02:51;;;;;;;0.08;0.08;;;14.60;99.90;;;;;;5096476;28;20059;-79
2022/06/15 06:05:17;;;;;;;0.00;0.00;;;14.60;99.90;;;;;;5096322;28;20483;-80
2022/06/15 06:07:43;;;;;;;0.00;0.00;;;14.60;99.90;;;;;;5079381;28;20051;-79
2022/06/15 06:10:09;;;;;;;0.15;0.10;;;14.60;99.90;;;;;;5078919;28;20052;-79
2022/06/15 06:12:34;;;;;;;0.00;0.00;;;14.50;99.90;;;;;;5096235;28;20391;-79
2022/06/15 06:15:00;;;;;;;0.00;0.00;;;14.60;99.90;;;;;;5096091;28;20052;-79
2022/06/15 06:17:26;;;;;;;0.00;0.00;;;14.70;99.90;;;;;;5096126;28;20472;-80
2022/06/15 06:19:52;;;;;;;0.00;0.00;;;14.90;99.90;;;;;;5095903;28;20062;-79
2022/06/15 06:22:18;;;;;;;0.15;0.15;;;15.00;99.90;;;;;;5096048;28;20086;-79
2022/06/15 06:24:43;;;;;;;0.00;0.00;;;15.20;99.90;;;;;;5078883;28;20123;-79
2022/06/15 06:27:12;;;;;;;0.00;0.00;;;15.20;99.90;;;;;;5095943;28;20135;-79
2022/06/15 06:29:38;;;;;;;0.00;0.00;;;15.20;99.90;;;;;;5095742;28;20051;-80
2022/06/15 06:32:05;;;;;;;11.45;0.65;;;15.10;99.90;;;;;;5095844;28;20040;-79
2022/06/15 06:34:31;;;;;;;0.03;0.00;;;15.20;99.90;;;;;;5095973;28;20047;-80
2022/06/15 06:37:00;;;;;;;0.52;0.43;;;15.30;99.90;;;;;;5079375;28;20054;-79
2022/06/15 06:39:29;;;;;;;0.20;0.20;;;15.20;99.90;;;;;;5078842;28;20044;-80
2022/06/15 06:41:57;;;;;;;0.00;0.00;;;15.30;99.90;;;;;;5078687;28;20059;-80
2022/06/15 06:44:22;;;;;;;0.00;0.00;;;15.40;99.90;;;;;;5078369;28;20105;-80
2022/06/15 06:46:50;;;;;;;0.00;0.00;;;15.50;99.90;;;;;;5078630;28;20135;-80
2022/06/15 06:49:16;;;;;;;0.00;0.00;;;15.50;99.90;;;;;;5078130;28;20052;-80
2022/06/15 06:51:44;;;;;;;0.00;0.00;;;15.60;99.90;;;;;;5095667;28;20052;-79
2022/06/15 06:54:13;;;;;;;0.00;0.00;;;15.60;99.90;;;;;;5078532;28;20101;-79
2022/06/15 06:56:39;;;;;;;0.35;0.00;;;15.70;99.90;;;;;;5095299;28;20036;-80
2022/06/15 06:59:07;;;;;;;3.25;0.00;;;15.80;99.90;;;;;;5095219;28;20475;-79
2022/06/15 07:01:38;;;;;;;0.40;0.28;;;15.90;99.90;;;;;;5078980;28;20085;-80
2022/06/15 07:04:04;;;;;;;0.00;0.00;;;16.00;99.90;;;;;;5078458;28;20044;-80
2022/06/15 07:06:30;;;;;;;0.00;0.00;;;16.10;99.90;;;;;;5094206;28;20075;-80
2022/06/15 07:08:58;;;;;;;0.00;0.00;;;16.20;99.90;;;;;;5078187;28;20043;-80
2022/06/15 07:11:25;;;;;;;0.08;0.08;;;16.30;99.90;;;;;;5077884;28;20052;-80
2022/06/15 07:13:51;;;;;;;0.00;0.00;;;16.40;99.90;;;;;;5078229;28;20135;-80
2022/06/15 07:16:19;;;;;;;0.00;0.00;;;16.50;99.90;;;;;;5111823;28;20048;-79
2022/06/15 07:18:46;;;;;;;0.00;0.00;;;16.50;99.90;;;;;;5078183;28;20168;-79
2022/06/15 07:21:18;;;;;;;0.00;0.00;;;16.70;99.90;;;;;;5094953;28;20048;-79
2022/06/15 07:23:46;;;;;;;0.00;0.00;;;16.80;99.90;;;;;;5077857;28;20052;-79
2022/06/15 07:26:15;;;;;;;0.00;0.00;;;17.00;99.90;;;;;;5094761;28;20070;-79
2022/06/15 07:28:41;;;;;;;0.00;0.00;;;17.10;99.90;;;;;;5078330;28;20044;-79
2022/06/15 07:31:08;;;;;;;0.30;0.30;;;17.30;99.90;;;;;;5077496;28;20101;-79
2022/06/15 07:33:36;;;;;;;3.65;0.47;;;17.40;99.90;;;;;;5077846;28;20092;-80
2022/06/15 07:36:03;;;;;;;0.00;0.00;;;17.50;99.90;;;;;;5094536;28;20096;-79
2022/06/15 07:38:29;;;;;;;0.38;0.00;;;17.70;99.90;;;;;;5077664;28;20086;-80
2022/06/15 07:40:57;;;;;;;0.03;0.03;;;17.70;99.90;;;;;;5095368;28;20090;-79
2022/06/15 07:43:24;;;;;;;1.48;0.38;;;17.80;99.90;;;;;;5094623;28;20091;-79
2022/06/15 07:45:49;;;;;;;0.00;0.00;;;17.90;99.90;;;;;;5077039;28;20059;-79
2022/06/15 07:50:59;;;;;;;0.00;0.00;;;18.20;99.90;;;;;;5094291;28;20511;-79
2022/06/15 07:53:25;;;;;;;0.00;0.00;;;18.40;99.90;;;;;;5077451;28;20056;-79
2022/06/15 07:55:52;;;;;;;0.00;0.00;;;18.50;99.90;;;;;;5094828;28;20044;-79
2022/06/15 07:58:19;;;;;;;0.00;0.00;;;18.60;99.90;;;;;;5077218;28;20135;-79
2022/06/15 08:00:47;;;;;;;0.20;0.08;;;18.70;99.90;;;;;;5077298;28;20051;-79
2022/06/15 08:03:13;;;;;;;0.05;0.00;;;18.80;99.90;;;;;;5094120;28;20076;-79
2022/06/15 08:05:47;;;;;;;0.00;0.00;;;18.90;99.90;;;;;;5094044;28;20044;-80
2022/06/15 08:08:17;;;;;;;0.00;0.00;;;19.00;99.90;;;;;;5094337;28;20051;-79
2022/06/15 08:10:43;;;;;;;0.00;0.00;;;19.10;99.90;;;;;;5076700;28;20666;-79
2022/06/15 08:13:09;;;;;;;0.00;0.00;;;19.20;99.90;;;;;;5093770;28;20032;-79
2022/06/15 08:15:36;;;;;;;0.00;0.00;;;19.30;99.90;;;;;;5093881;28;20055;-79
2022/06/15 08:18:13;;;;;;;0.00;0.00;;;19.50;99.90;;;;;;5075968;28;20116;-79
2022/06/15 08:20:46;;;;;;;0.00;0.00;;;19.50;99.90;;;;;;5094192;28;20048;-79
2022/06/15 08:23:16;;;;;;;0.00;0.00;;;19.60;99.90;;;;;;5093933;28;20048;-79
2022/06/15 08:25:55;;;;;;;0.52;0.15;;;19.70;99.90;;;;;;5093582;28;20557;-79
2022/06/15 08:28:24;;;;;;;1.17;0.10;;;19.70;99.60;;;;;;5076837;28;20055;-79
2022/06/15 08:30:50;;;;;;;0.00;0.00;;;19.80;99.70;;;;;;5094101;28;20052;-79
2022/06/15 08:33:17;;;;;;;0.00;0.00;;;19.80;96.50;;;;;;5093735;28;20506;-79
2022/06/15 08:35:43;;;;;;;0.00;0.00;;;19.90;97.60;;;;;;5093484;28;20079;-78
2022/06/15 08:38:11;;;;;;;0.45;0.45;;;20.00;97.90;;;;;;5076097;28;20087;-78
2022/06/15 08:41:03;;;;;;;0.00;0.00;;;20.00;97.20;;;;;;5093475;28;20055;-79
2022/06/15 08:43:47;;;;;;;0.00;0.00;;;20.20;98.60;;;;;;5077140;28;20047;-78
2022/06/15 08:46:39;;;;;;;0.00;0.00;;;20.30;95.90;;;;;;5076821;28;20054;-79
2022/06/15 08:49:16;;;;;;;0.00;0.00;;;20.40;97.50;;;;;;5075661;28;20059;-79
2022/06/15 08:51:45;;;;;;;0.00;0.00;;;20.40;95.10;;;;;;5093624;28;20044;-79
2022/06/15 08:54:34;;;;;;;0.08;0.08;;;20.50;95.90;;;;;;5093801;28;20216;-79
2022/06/15 08:57:18;;;;;;;0.00;0.00;;;20.60;93.70;;;;;;5093528;28;20399;-79
2022/06/15 09:00:00;;;;;;;0.00;0.00;;;20.60;94.10;;;;;;5076683;28;20051;-79
2022/06/15 09:02:40;;;;;;;0.00;0.00;;;20.70;93.90;;;;;;5093889;28;20094;-80
2022/06/15 09:05:30;;;;;;;0.00;0.00;;;20.70;92.10;;;;;;5093257;28;20052;-79
2022/06/15 09:08:05;;;;;;;0.00;0.00;;;20.80;95.70;;;;;;5075720;28;20055;-79
2022/06/15 09:10:36;;;;;;;;;;;20.80;94.80;;;;;;5093323;28;20478;-79
2022/06/15 09:13:39;;;;;;;0.00;0.00;;;20.80;92.80;;;;;;5076347;28;19935;-79
2022/06/15 09:16:28;;;;;;;0.00;0.00;;;20.80;93.00;;;;;;5092981;28;20047;-79
2022/06/15 09:19:08;;;;;;;0.00;0.00;;;20.90;92.20;;;;;;5093138;28;20143;-79
2022/06/15 09:21:52;;;;;;;0.00;0.00;;;21.00;91.90;;;;;;5093284;28;20602;-79
2022/06/15 09:24:24;;;;;;;0.00;0.00;;;21.20;91.80;;;;;;5076187;28;20368;-79
2022/06/15 09:27:04;;;;;;;0.00;0.00;;;21.20;90.60;;;;;;5076390;28;20051;-79
2022/06/15 09:29:41;;;;;;;0.00;0.00;;;21.30;93.30;;;;;;5094991;28;20079;-79
2022/06/15 09:32:07;;;;;;;0.00;0.00;;;21.40;91.80;;;;;;5079396;28;20070;-79
2022/06/15 09:34:40;;;;;;;0.00;0.00;;;21.50;92.70;;;;;;5097031;28;20502;-79
2022/06/15 09:37:15;;;;;;;0.75;0.40;;;21.60;90.30;;;;;;5096644;28;20384;-79
2022/06/15 09:39:41;;;;;;;0.00;0.00;;;21.70;90.70;;;;;;5097631;28;20384;-79
2022/06/15 09:42:23;;;;;;;0.00;0.00;;;21.70;89.50;;;;;;5097386;28;20395;-79
2022/06/15 09:45:02;;;;;;;0.35;0.35;;;21.80;90.50;;;;;;5079802;28;20051;-79
2022/06/15 09:47:37;;;;;;;0.00;0.00;;;22.00;88.50;;;;;;5079656;28;20075;-79
2022/06/15 09:50:08;;;;;;;0.00;0.00;;;22.10;89.50;;;;;;5100129;28;20048;-79
2022/06/15 09:52:56;;;;;;;0.00;0.00;;;22.20;90.20;;;;;;5100275;28;20048;-79
2022/06/15 09:55:38;;;;;;;0.00;0.00;;;22.40;90.00;;;;;;5099873;28;20111;-79
2022/06/15 09:58:06;;;;;;;0.00;0.00;;;22.50;90.00;;;;;;5100018;28;20483;-79
2022/06/15 10:00:34;;;;;;;0.25;0.25;;;22.50;86.40;;;;;;5099937;28;20566;-79
2022/06/15 10:03:03;;;;;;;0.15;0.13;;;22.60;85.90;;;;;;5099566;28;20418;-79
2022/06/15 10:05:38;;;;;;;0.00;0.00;;;22.70;80.70;;;;;;5099852;28;20046;-79
2022/06/15 10:08:11;;;;;;;0.00;0.00;;;22.80;87.80;;;;;;5099926;28;20047;-79
2022/06/15 10:10:50;;;;;;;0.00;0.00;;;22.80;78.40;;;;;;5099597;28;20069;-80
2022/06/15 10:13:15;;;;;;;0.20;0.10;;;22.90;80.20;;;;;;5083296;28;20464;-79
2022/06/15 10:15:41;;;;;;;0.00;0.00;;;22.90;83.40;;;;;;5100085;28;20079;-79
2022/06/15 10:18:28;;;;;;;0.00;0.00;;;23.00;79.30;;;;;;5099843;28;20047;-79
2022/06/15 10:21:13;;;;;;;0.00;0.00;;;23.10;78.10;;;;;;5082083;28;20494;-79
2022/06/15 10:23:59;;;;;;;0.00;0.00;;;23.10;78.70;;;;;;5099493;28;20440;-79
2022/06/15 10:26:38;;;;;;;0.00;0.00;;;23.20;78.60;;;;;;5099839;28;20122;-79
2022/06/15 10:29:30;;;;;;;0.00;0.00;;;23.20;76.30;;;;;;5099354;28;20047;-80
2022/06/15 10:32:08;;;;;;;0.00;0.00;;;23.30;77.10;;;;;;5099690;28;20050;-79
2022/06/15 10:34:46;;;;;;;11.27;0.65;;;23.50;77.40;;;;;;5099102;28;20203;-79
2022/06/15 10:37:34;;;;;;;0.00;0.00;;;23.60;74.60;;;;;;5099431;28;20055;-79
2022/06/15 10:40:31;;;;;;;0.00;0.00;;;23.60;75.90;;;;;;5082849;28;20071;-79
2022/06/15 10:43:16;;;;;;;0.00;0.00;;;23.70;76.50;;;;;;5090931;28;20152;-79
2022/06/15 10:46:04;;;;;;;0.00;0.00;;;23.90;78.10;;;;;;5099050;28;20039;-79
2022/06/15 10:48:34;;;;;;;0.00;0.00;;;24.10;75.30;;;;;;5078489;28;20096;-79
2022/06/15 10:51:07;;;;;;;0.00;0.00;;;24.20;74.60;;;;;;5095332;28;20135;-80
2022/06/15 10:53:38;;;;;;;0.00;0.00;;;24.40;75.80;;;;;;5095665;28;20055;-80
2022/06/15 11:04:36;;;;;;;0.00;0.00;;;24.70;75.50;;;;;;5095205;28;20059;-80
2022/06/15 11:07:02;;;;;;;0.00;0.00;;;24.80;74.10;;;;;;5078083;28;20514;-80
2022/06/15 11:09:53;;;;;;;0.00;0.00;;;24.80;73.30;;;;;;5095056;28;20127;-79
2022/06/15 11:12:56;;;;;;;0.03;0.00;;;24.80;72.10;;;;;;5094559;28;20602;-79
2022/06/15 11:18:41;;;;;;;0.00;0.00;;;24.80;69.50;;;;;;5016800;28;20091;-80
2022/06/15 11:21:23;;;;;;;0.00;0.00;;;24.70;68.50;;;;;;5001099;28;20081;-79
2022/06/15 11:23:56;;;;;;;0.00;0.00;;;24.70;71.40;;;;;;5001155;28;20045;-80
2022/06/15 11:29:41;;;;;;;0.00;0.00;;;24.80;67.00;;;;;;5017325;28;20050;-79
2022/06/15 11:32:25;;;;;;;0.00;0.00;;;24.80;62.90;;;;;;5001314;28;20184;-79
2022/06/15 11:35:02;;;;;;;0.00;0.00;;;24.90;67.90;;;;;;5017097;28;20057;-79
2022/06/15 11:38:02;;;;;;;0.00;0.00;;;25.00;67.60;;;;;;5017131;28;20559;-79
2022/06/15 11:40:46;;;;;;;0.00;0.00;;;25.10;70.50;;;;;;5000633;28;20583;-79
2022/06/15 11:43:22;;;;;;;0.00;0.00;;;25.20;69.40;;;;;;5000955;28;20053;-80
2022/06/15 11:46:18;;;;;;;0.00;0.00;;;25.00;67.00;;;;;;5000609;28;20072;-80
2022/06/15 11:49:10;;;;;;;0.00;0.00;;;25.10;65.90;;;;;;5016732;28;20093;-80
2022/06/15 11:52:08;;;;;;;0.00;0.00;;;25.00;64.90;;;;;;5094612;28;20098;-80
2022/06/15 11:54:42;;;;;;;0.00;0.00;;;25.10;70.30;;;;;;5016356;28;20521;-79
2022/06/15 11:57:32;;;;;;;0.00;0.00;;;25.10;64.00;;;;;;5017337;28;20061;-79
2022/06/15 12:00:28;;;;;;;0.00;0.00;;;25.30;66.30;;;;;;5016816;28;20176;-80
2022/06/15 12:03:15;;;;;;;0.00;0.00;;;25.40;65.80;;;;;;5016760;28;20540;-80
2022/06/15 12:05:51;;;;;;;0.00;0.00;;;25.50;67.60;;;;;;5016910;28;20503;-80
2022/06/15 12:08:53;;;;;;;0.00;0.00;;;25.60;70.30;;;;;;5016655;28;20492;-80
2022/06/15 12:14:19;;;;;;;0.03;0.00;;;25.70;68.50;;;;;;4977439;28;20051;-80
2022/06/15 12:17:14;;;;;;;0.00;0.00;;;25.80;72.10;;;;;;4961167;28;20494;-80
2022/06/15 12:19:50;;;;;;;0.00;0.00;;;25.80;69.00;;;;;;4961006;28;20144;-80
2022/06/15 12:22:17;;;;;;;0.00;0.00;;;26.00;69.70;;;;;;4961550;28;20061;-80
2022/06/15 12:24:56;;;;;;;0.00;0.00;;;26.00;66.10;;;;;;4977468;28;20058;-80
2022/06/15 12:27:47;;;;;;;0.10;0.10;;;26.00;68.30;;;;;;4977158;28;20559;-80
2022/06/15 12:30:38;;;;;;;0.00;0.00;;;25.80;67.20;;;;;;4977073;28;20057;-80
2022/06/15 12:33:42;;;;;;;0.00;0.00;;;25.90;70.30;;;;;;5016372;28;20140;-80
2022/06/15 12:36:19;;;;;;;0.20;0.20;;;26.10;66.90;;;;;;5016224;28;20099;-79
2022/06/15 12:38:53;;;;;;;0.00;0.00;;;26.20;66.70;;;;;;5016487;28;20132;-80
2022/06/15 12:44:23;;;;;;;0.00;0.00;;;26.20;65.70;;;;;;5016201;28;20053;-80
2022/06/15 12:46:53;;;;;;;0.00;0.00;;;26.20;67.00;;;;;;5008129;28;20053;-80
2022/06/15 12:49:25;;;;;;;0.00;0.00;;;26.30;70.60;;;;;;5093126;28;20479;-80
2022/06/15 12:51:53;;;;;;;0.00;0.00;;;26.20;67.80;;;;;;5076942;28;20419;-80
2022/06/15 12:54:34;;;;;;;0.00;0.00;;;26.20;68.10;;;;;;5093446;28;20105;-80
2022/06/15 12:57:24;;;;;;;0.05;0.00;;;26.10;64.70;;;;;;5093311;28;20055;-80
2022/06/15 13:00:06;;;;;;;0.00;0.00;;;26.20;66.20;;;;;;5093778;28;20051;-80
2022/06/15 13:02:38;;;;;;;0.00;0.00;;;26.30;63.10;;;;;;5093753;28;20046;-80
2022/06/15 13:05:09;;;;;;;0.00;0.00;;;26.30;62.30;;;;;;5075222;28;20561;-79
2022/06/15 13:07:38;;;;;;;0.10;0.00;;;26.00;64.00;;;;;;5093132;28;20135;-80
2022/06/15 13:10:06;;;;;;;0.00;0.00;;;26.10;68.80;;;;;;5076268;28;20066;-80
2022/06/15 13:12:49;;;;;;;0.00;0.00;;;26.20;66.10;;;;;;5093160;28;20048;-79
2022/06/15 13:15:27;;;;;;;0.25;0.10;;;26.00;65.70;;;;;;5076734;28;20132;-81
2022/06/15 13:18:06;;;;;;;0.05;0.00;;;26.00;64.70;;;;;;5076178;28;20491;-80
2022/06/15 13:20:55;;;;;;;0.00;0.00;;;25.80;64.60;;;;;;5093119;28;20056;-80
2022/06/15 13:23:26;;;;;;;0.00;0.00;;;25.90;65.60;;;;;;5015554;28;20252;-80
2022/06/15 13:25:58;;;;;;;0.00;0.00;;;26.00;65.50;;;;;;5015512;28;20061;-80
2022/06/15 13:28:33;;;;;;;0.00;0.00;;;26.00;63.10;;;;;;5015162;28;20398;-80
2022/06/15 13:31:04;;;;;;;0.32;0.30;;;26.00;66.20;;;;;;4998994;28;20045;-80
2022/06/15 13:33:51;;;;;;;0.00;0.00;;;26.10;63.60;;;;;;5015339;28;20628;-80
2022/06/15 13:36:19;;;;;;;0.00;0.00;;;26.00;65.80;;;;;;5015648;28;20095;-80
2022/06/15 13:38:45;;;;;;;0.00;0.00;;;26.00;64.50;;;;;;5015354;28;20485;-80
2022/06/15 13:41:19;;;;;;;0.00;0.00;;;26.20;64.40;;;;;;5015251;28;20057;-80